sensor_id;sensor_type;location;lat;lon;timestamp;temperature;humidity
2999;DHT22;1509;51.964;7.628;2023-04-08T00:00:17;6.20;99.90
2999;DHT22;1509;51.964;7.628;2023-04-08T00:02:43;6.20;99.90
2999;DHT22;1509;51.964;7.628;2023-04-08T00:05:08;6.20;99.90
2999;DHT22;1509;51.964;7.628;2023-04-08T00:07:34;6.10;99.90
2999;DHT22;1509;51.964;7.628;2023-04-08T00:10:00;6.10;99.90
2999;DHT22;1509;51.964;7.628;2023-04-08T00:12:26;6.10;99.90
2999;DHT22;1509;51.964;7.628;2023-04-08T00:14:51;6.00;99.90
2999;DHT22;1509;51.964;7.628;2023-04-08T00:17:17;6.00;99.90
2999;DHT22;1509;51.964;7.628;2023-04-08T00:19:43;6.00;99.90
2999;DHT22;1509;51.964;7.628;2023-04-08T00:22:09;6.00;99.90
2999;DHT22;1509;51.964;7.628;2023-04-08T00:24:35;6.00;99.90
2999;DHT22;1509;51.964;7.628;2023-04-08T00:27:01;6.00;99.90
2999;DHT22;1509;51.964;7.628;2023-04-08T00:29:27;5.90;99.90
2999;DHT22;1509;51.964;7.628;2023-04-08T00:31:53;5.90;99.90
2999;DHT22;1509;51.964;7.628;2023-04-08T00:34:19;5.90;99.90
2999;DHT22;1509;51.964;7.628;2023-04-08T00:36:45;5.90;99.90
2999;DHT22;1509;51.964;7.628;2023-04-08T00:39:12;5.80;99.90
2999;DHT22;1509;51.964;7.628;2023-04-08T00:41:38;5.80;99.90
2999;DHT22;1509;51.964;7.628;2023-04-08T00:46:35;5.70;99.90
2999;DHT22;1509;51.964;7.628;2023-04-08T00:49:01;5.70;99.90
2999;DHT22;1509;51.964;7.628;2023-04-08T00:51:28;5.60;99.90
2999;DHT22;1509;51.964;7.628;2023-04-08T00:53:54;5.70;99.90
2999;DHT22;1509;51.964;7.628;2023-04-08T00:56:21;5.70;99.90
2999;DHT22;1509;51.964;7.628;2023-04-08T00:58:46;5.70;99.90
2999;DHT22;1509;51.964;7.628;2023-04-08T01:04:05;5.60;99.90
2999;DHT22;1509;51.964;7.628;2023-04-08T01:06:53;5.60;99.90
2999;DHT22;1509;51.964;7.628;2023-04-08T01:09:26;5.60;99.90
2999;DHT22;1509;51.964;7.628;2023-04-08T01:11:53;5.60;99.90
2999;DHT22;1509;51.964;7.628;2023-04-08T01:14:23;5.50;99.90
2999;DHT22;1509;51.964;7.628;2023-04-08T01:16:51;5.50;99.90
2999;DHT22;1509;51.964;7.628;2023-04-08T01:19:32;5.40;99.90
2999;DHT22;1509;51.964;7.628;2023-04-08T01:25:05;5.40;99.90
2999;DHT22;1509;51.964;7.628;2023-04-08T01:27:37;5.40;99.90
2999;DHT22;1509;51.964;7.628;2023-04-08T01:30:05;5.40;99.90
2999;DHT22;1509;51.964;7.628;2023-04-08T01:32:33;5.30;99.90
2999;DHT22;1509;51.964;7.628;2023-04-08T01:35:00;5.30;99.90
2999;DHT22;1509;51.964;7.628;2023-04-08T01:37:27;5.40;99.90
2999;DHT22;1509;51.964;7.628;2023-04-08T01:39:54;5.30;99.90
2999;DHT22;1509;51.964;7.628;2023-04-08T01:42:23;5.40;99.90
2999;DHT22;1509;51.964;7.628;2023-04-08T01:44:51;5.20;99.90
2999;DHT22;1509;51.964;7.628;2023-04-08T01:47:18;5.30;99.90
2999;DHT22;1509;51.964;7.628;2023-04-08T01:49:44;5.30;99.90
2999;DHT22;1509;51.964;7.628;2023-04-08T01:52:10;5.30;99.90
2999;DHT22;1509;51.964;7.628;2023-04-08T01:54:37;5.20;99.90
2999;DHT22;1509;51.964;7.628;2023-04-08T01:57:04;5.20;99.90
2999;DHT22;1509;51.964;7.628;2023-04-08T01:59:34;5.20;99.90
2999;DHT22;1509;51.964;7.628;2023-04-08T02:02:01;5.20;99.90
2999;DHT22;1509;51.964;7.628;2023-04-08T02:04:29;5.20;99.90
2999;DHT22;1509;51.964;7.628;2023-04-08T02:06:55;5.20;99.90
2999;DHT22;1509;51.964;7.628;2023-04-08T02:09:21;5.10;99.90
2999;DHT22;1509;51.964;7.628;2023-04-08T02:11:47;5.10;99.90
2999;DHT22;1509;51.964;7.628;2023-04-08T02:14:13;5.10;99.90
2999;DHT22;1509;51.964;7.628;2023-04-08T02:16:49;5.10;99.90
2999;DHT22;1509;51.964;7.628;2023-04-08T02:19:23;5.00;99.90
2999;DHT22;1509;51.964;7.628;2023-04-08T02:21:56;5.00;99.90
2999;DHT22;1509;51.964;7.628;2023-04-08T02:24:22;5.00;99.90
2999;DHT22;1509;51.964;7.628;2023-04-08T02:26:48;4.90;99.90
2999;DHT22;1509;51.964;7.628;2023-04-08T02:29:16;4.90;99.90
2999;DHT22;1509;51.964;7.628;2023-04-08T02:31:43;4.90;99.90
2999;DHT22;1509;51.964;7.628;2023-04-08T02:34:09;5.00;99.90
2999;DHT22;1509;51.964;7.628;2023-04-08T02:36:35;4.90;99.90
2999;DHT22;1509;51.964;7.628;2023-04-08T02:39:02;4.80;99.90
2999;DHT22;1509;51.964;7.628;2023-04-08T02:41:28;4.90;99.90
2999;DHT22;1509;51.964;7.628;2023-04-08T02:43:54;4.80;99.90
2999;DHT22;1509;51.964;7.628;2023-04-08T02:46:20;4.80;99.90
2999;DHT22;1509;51.964;7.628;2023-04-08T02:48:46;4.70;99.90
2999;DHT22;1509;51.964;7.628;2023-04-08T02:51:12;4.70;99.90
2999;DHT22;1509;51.964;7.628;2023-04-08T02:53:37;4.70;99.90
2999;DHT22;1509;51.964;7.628;2023-04-08T02:56:03;4.70;99.90
2999;DHT22;1509;51.964;7.628;2023-04-08T02:58:29;4.80;99.90
2999;DHT22;1509;51.964;7.628;2023-04-08T03:00:55;4.70;99.90
2999;DHT22;1509;51.964;7.628;2023-04-08T03:03:20;4.70;99.90
2999;DHT22;1509;51.964;7.628;2023-04-08T03:05:54;4.70;99.90
2999;DHT22;1509;51.964;7.628;2023-04-08T03:08:20;4.70;99.90
2999;DHT22;1509;51.964;7.628;2023-04-08T03:10:46;4.70;99.90
2999;DHT22;1509;51.964;7.628;2023-04-08T03:13:11;4.80;99.90
2999;DHT22;1509;51.964;7.628;2023-04-08T03:15:37;4.70;99.90
2999;DHT22;1509;51.964;7.628;2023-04-08T03:18:03;4.90;99.90
2999;DHT22;1509;51.964;7.628;2023-04-08T03:20:30;4.90;99.90
2999;DHT22;1509;51.964;7.628;2023-04-08T03:22:55;4.90;99.90
2999;DHT22;1509;51.964;7.628;2023-04-08T03:25:21;5.10;99.90
2999;DHT22;1509;51.964;7.628;2023-04-08T03:27:46;5.20;99.90
2999;DHT22;1509;51.964;7.628;2023-04-08T03:30:12;5.20;99.90
2999;DHT22;1509;51.964;7.628;2023-04-08T03:32:38;5.40;99.90
2999;DHT22;1509;51.964;7.628;2023-04-08T03:35:04;5.30;99.90
2999;DHT22;1509;51.964;7.628;2023-04-08T03:37:30;5.40;99.90
2999;DHT22;1509;51.964;7.628;2023-04-08T03:39:56;5.40;99.90
2999;DHT22;1509;51.964;7.628;2023-04-08T03:42:22;5.40;99.90
2999;DHT22;1509;51.964;7.628;2023-04-08T03:44:51;5.40;99.90
2999;DHT22;1509;51.964;7.628;2023-04-08T03:47:16;5.40;99.90
2999;DHT22;1509;51.964;7.628;2023-04-08T03:49:42;5.40;99.90
2999;DHT22;1509;51.964;7.628;2023-04-08T03:52:07;5.50;99.90
2999;DHT22;1509;51.964;7.628;2023-04-08T03:54:33;5.50;99.90
2999;DHT22;1509;51.964;7.628;2023-04-08T03:56:59;5.50;99.90
2999;DHT22;1509;51.964;7.628;2023-04-08T03:59:24;5.50;99.90
2999;DHT22;1509;51.964;7.628;2023-04-08T04:01:50;5.60;99.90
2999;DHT22;1509;51.964;7.628;2023-04-08T04:04:18;5.60;99.90
2999;DHT22;1509;51.964;7.628;2023-04-08T04:06:43;5.60;99.90
2999;DHT22;1509;51.964;7.628;2023-04-08T04:09:09;5.50;99.90
2999;DHT22;1509;51.964;7.628;2023-04-08T04:11:35;5.50;99.90
2999;DHT22;1509;51.964;7.628;2023-04-08T04:14:01;5.50;99.90
2999;DHT22;1509;51.964;7.628;2023-04-08T04:16:27;5.60;99.90
2999;DHT22;1509;51.964;7.628;2023-04-08T04:18:52;5.60;99.90
2999;DHT22;1509;51.964;7.628;2023-04-08T04:21:18;5.60;99.90
2999;DHT22;1509;51.964;7.628;2023-04-08T04:23:44;5.60;99.90
2999;DHT22;1509;51.964;7.628;2023-04-08T04:26:10;5.70;99.90
2999;DHT22;1509;51.964;7.628;2023-04-08T04:28:36;5.70;99.90
2999;DHT22;1509;51.964;7.628;2023-04-08T04:31:02;5.70;99.90
2999;DHT22;1509;51.964;7.628;2023-04-08T04:33:28;5.70;99.90
2999;DHT22;1509;51.964;7.628;2023-04-08T04:35:54;5.70;99.90
2999;DHT22;1509;51.964;7.628;2023-04-08T04:38:20;5.70;99.90
2999;DHT22;1509;51.964;7.628;2023-04-08T04:40:46;5.60;99.90
2999;DHT22;1509;51.964;7.628;2023-04-08T04:43:11;5.50;99.90
2999;DHT22;1509;51.964;7.628;2023-04-08T04:45:37;5.60;99.90
2999;DHT22;1509;51.964;7.628;2023-04-08T04:48:03;5.60;99.90
2999;DHT22;1509;51.964;7.628;2023-04-08T04:50:28;5.60;99.90
2999;DHT22;1509;51.964;7.628;2023-04-08T04:52:54;5.60;99.90
2999;DHT22;1509;51.964;7.628;2023-04-08T04:55:20;5.70;99.90
2999;DHT22;1509;51.964;7.628;2023-04-08T04:57:47;5.60;99.90
2999;DHT22;1509;51.964;7.628;2023-04-08T05:00:13;5.70;99.90
2999;DHT22;1509;51.964;7.628;2023-04-08T05:02:39;5.70;99.90
2999;DHT22;1509;51.964;7.628;2023-04-08T05:05:05;5.80;99.90
2999;DHT22;1509;51.964;7.628;2023-04-08T05:07:34;5.70;99.90
2999;DHT22;1509;51.964;7.628;2023-04-08T05:09:59;5.70;99.90
2999;DHT22;1509;51.964;7.628;2023-04-08T05:12:25;5.70;99.90
2999;DHT22;1509;51.964;7.628;2023-04-08T05:14:51;5.70;99.90
2999;DHT22;1509;51.964;7.628;2023-04-08T05:17:17;5.70;99.90
2999;DHT22;1509;51.964;7.628;2023-04-08T05:19:42;5.70;99.90
2999;DHT22;1509;51.964;7.628;2023-04-08T05:22:08;5.70;99.90
2999;DHT22;1509;51.964;7.628;2023-04-08T05:24:33;5.70;99.90
2999;DHT22;1509;51.964;7.628;2023-04-08T05:27:00;5.90;99.90
2999;DHT22;1509;51.964;7.628;2023-04-08T05:29:26;5.90;99.90
2999;DHT22;1509;51.964;7.628;2023-04-08T05:31:52;6.00;99.90
2999;DHT22;1509;51.964;7.628;2023-04-08T05:34:17;6.00;99.90
2999;DHT22;1509;51.964;7.628;2023-04-08T05:36:48;6.00;99.90
2999;DHT22;1509;51.964;7.628;2023-04-08T05:39:17;6.00;99.90
2999;DHT22;1509;51.964;7.628;2023-04-08T05:41:43;6.00;99.90
2999;DHT22;1509;51.964;7.628;2023-04-08T05:44:09;6.10;99.90
2999;DHT22;1509;51.964;7.628;2023-04-08T05:46:36;6.20;99.90
2999;DHT22;1509;51.964;7.628;2023-04-08T05:49:02;6.20;99.90
2999;DHT22;1509;51.964;7.628;2023-04-08T05:51:28;6.30;99.90
2999;DHT22;1509;51.964;7.628;2023-04-08T05:53:53;6.30;99.90
2999;DHT22;1509;51.964;7.628;2023-04-08T05:56:19;6.30;99.90
2999;DHT22;1509;51.964;7.628;2023-04-08T05:58:45;6.40;99.90
2999;DHT22;1509;51.964;7.628;2023-04-08T06:01:11;6.40;99.90
2999;DHT22;1509;51.964;7.628;2023-04-08T06:03:37;6.50;99.90
2999;DHT22;1509;51.964;7.628;2023-04-08T06:06:02;6.60;99.90
2999;DHT22;1509;51.964;7.628;2023-04-08T06:08:28;6.60;99.90
2999;DHT22;1509;51.964;7.628;2023-04-08T06:10:54;6.60;99.90
2999;DHT22;1509;51.964;7.628;2023-04-08T06:13:19;6.60;99.90
2999;DHT22;1509;51.964;7.628;2023-04-08T06:15:46;6.60;99.90
2999;DHT22;1509;51.964;7.628;2023-04-08T06:18:15;6.70;99.90
2999;DHT22;1509;51.964;7.628;2023-04-08T06:20:41;6.90;99.90
2999;DHT22;1509;51.964;7.628;2023-04-08T06:23:07;7.00;99.90
2999;DHT22;1509;51.964;7.628;2023-04-08T06:25:32;7.10;99.90
2999;DHT22;1509;51.964;7.628;2023-04-08T06:27:58;7.30;99.90
2999;DHT22;1509;51.964;7.628;2023-04-08T06:30:24;7.20;99.90
2999;DHT22;1509;51.964;7.628;2023-04-08T06:32:49;7.30;99.90
2999;DHT22;1509;51.964;7.628;2023-04-08T06:35:15;7.30;99.90
2999;DHT22;1509;51.964;7.628;2023-04-08T06:37:41;7.30;99.90
2999;DHT22;1509;51.964;7.628;2023-04-08T06:40:07;7.30;99.90
2999;DHT22;1509;51.964;7.628;2023-04-08T06:42:32;7.20;99.90
2999;DHT22;1509;51.964;7.628;2023-04-08T06:44:58;7.10;99.90
2999;DHT22;1509;51.964;7.628;2023-04-08T06:47:24;7.00;99.90
2999;DHT22;1509;51.964;7.628;2023-04-08T06:49:49;7.00;99.90
2999;DHT22;1509;51.964;7.628;2023-04-08T06:52:16;7.00;99.90
2999;DHT22;1509;51.964;7.628;2023-04-08T06:54:41;7.00;99.90
2999;DHT22;1509;51.964;7.628;2023-04-08T06:57:07;7.10;99.90
2999;DHT22;1509;51.964;7.628;2023-04-08T06:59:33;7.30;99.90
2999;DHT22;1509;51.964;7.628;2023-04-08T07:01:58;7.30;99.90
2999;DHT22;1509;51.964;7.628;2023-04-08T07:04:24;7.40;99.90
2999;DHT22;1509;51.964;7.628;2023-04-08T07:06:51;7.40;99.90
2999;DHT22;1509;51.964;7.628;2023-04-08T07:09:16;7.40;99.90
2999;DHT22;1509;51.964;7.628;2023-04-08T07:11:42;7.50;99.90
2999;DHT22;1509;51.964;7.628;2023-04-08T07:14:07;7.40;99.90
2999;DHT22;1509;51.964;7.628;2023-04-08T07:16:33;7.60;99.90
2999;DHT22;1509;51.964;7.628;2023-04-08T07:18:58;7.70;99.90
2999;DHT22;1509;51.964;7.628;2023-04-08T07:21:24;7.70;99.90
2999;DHT22;1509;51.964;7.628;2023-04-08T07:23:50;7.80;99.90
2999;DHT22;1509;51.964;7.628;2023-04-08T07:26:16;7.80;99.90
2999;DHT22;1509;51.964;7.628;2023-04-08T07:28:41;7.90;99.90
2999;DHT22;1509;51.964;7.628;2023-04-08T07:31:09;7.70;99.90
2999;DHT22;1509;51.964;7.628;2023-04-08T07:33:35;7.70;99.90
2999;DHT22;1509;51.964;7.628;2023-04-08T07:36:00;7.70;99.90
2999;DHT22;1509;51.964;7.628;2023-04-08T07:38:26;7.60;99.90
2999;DHT22;1509;51.964;7.628;2023-04-08T07:40:52;7.50;99.90
2999;DHT22;1509;51.964;7.628;2023-04-08T07:43:17;7.50;99.90
2999;DHT22;1509;51.964;7.628;2023-04-08T07:45:43;7.60;99.90
2999;DHT22;1509;51.964;7.628;2023-04-08T07:48:09;7.60;99.90
2999;DHT22;1509;51.964;7.628;2023-04-08T07:50:37;7.70;99.90
2999;DHT22;1509;51.964;7.628;2023-04-08T07:53:03;7.80;99.90
2999;DHT22;1509;51.964;7.628;2023-04-08T07:55:33;7.80;99.90
2999;DHT22;1509;51.964;7.628;2023-04-08T07:57:59;7.80;99.90
2999;DHT22;1509;51.964;7.628;2023-04-08T08:00:26;7.90;99.90
2999;DHT22;1509;51.964;7.628;2023-04-08T08:02:51;8.00;99.90
2999;DHT22;1509;51.964;7.628;2023-04-08T08:05:17;8.20;99.90
2999;DHT22;1509;51.964;7.628;2023-04-08T08:07:43;8.40;99.90
2999;DHT22;1509;51.964;7.628;2023-04-08T08:10:09;8.60;99.90
2999;DHT22;1509;51.964;7.628;2023-04-08T08:12:35;8.80;99.90
2999;DHT22;1509;51.964;7.628;2023-04-08T08:15:01;8.90;99.90
2999;DHT22;1509;51.964;7.628;2023-04-08T08:17:27;9.00;99.90
2999;DHT22;1509;51.964;7.628;2023-04-08T08:19:58;9.10;99.90
2999;DHT22;1509;51.964;7.628;2023-04-08T08:22:25;9.10;99.90
2999;DHT22;1509;51.964;7.628;2023-04-08T08:24:57;9.20;99.90
2999;DHT22;1509;51.964;7.628;2023-04-08T08:27:23;9.00;99.90
2999;DHT22;1509;51.964;7.628;2023-04-08T08:29:48;8.80;99.90
2999;DHT22;1509;51.964;7.628;2023-04-08T08:32:14;8.60;99.90
2999;DHT22;1509;51.964;7.628;2023-04-08T08:34:42;8.70;99.90
2999;DHT22;1509;51.964;7.628;2023-04-08T08:37:08;8.70;99.90
2999;DHT22;1509;51.964;7.628;2023-04-08T08:39:34;8.90;99.90
2999;DHT22;1509;51.964;7.628;2023-04-08T08:41:59;9.00;99.90
2999;DHT22;1509;51.964;7.628;2023-04-08T08:44:25;9.10;99.90
2999;DHT22;1509;51.964;7.628;2023-04-08T08:46:52;9.40;99.90
2999;DHT22;1509;51.964;7.628;2023-04-08T08:49:18;9.70;99.90
2999;DHT22;1509;51.964;7.628;2023-04-08T08:51:46;10.00;99.90
2999;DHT22;1509;51.964;7.628;2023-04-08T08:54:14;10.20;99.90
2999;DHT22;1509;51.964;7.628;2023-04-08T08:56:40;10.40;99.90
2999;DHT22;1509;51.964;7.628;2023-04-08T08:59:08;10.40;99.90
2999;DHT22;1509;51.964;7.628;2023-04-08T09:01:39;10.30;99.90
2999;DHT22;1509;51.964;7.628;2023-04-08T09:04:16;10.00;99.90
2999;DHT22;1509;51.964;7.628;2023-04-08T09:06:44;9.90;99.90
2999;DHT22;1509;51.964;7.628;2023-04-08T09:09:11;9.60;99.90
2999;DHT22;1509;51.964;7.628;2023-04-08T09:11:42;9.60;99.90
2999;DHT22;1509;51.964;7.628;2023-04-08T09:14:20;9.50;99.90
2999;DHT22;1509;51.964;7.628;2023-04-08T09:16:46;9.60;99.90
2999;DHT22;1509;51.964;7.628;2023-04-08T09:19:12;9.70;99.90
2999;DHT22;1509;51.964;7.628;2023-04-08T09:21:41;10.00;99.90
2999;DHT22;1509;51.964;7.628;2023-04-08T09:24:25;10.50;99.90
2999;DHT22;1509;51.964;7.628;2023-04-08T09:26:51;10.80;99.90
2999;DHT22;1509;51.964;7.628;2023-04-08T09:29:17;11.20;99.90
2999;DHT22;1509;51.964;7.628;2023-04-08T09:31:42;11.30;99.90
2999;DHT22;1509;51.964;7.628;2023-04-08T09:34:17;11.50;99.90
2999;DHT22;1509;51.964;7.628;2023-04-08T09:36:50;11.80;99.90
2999;DHT22;1509;51.964;7.628;2023-04-08T09:39:16;12.30;99.90
2999;DHT22;1509;51.964;7.628;2023-04-08T09:41:42;12.10;99.90
2999;DHT22;1509;51.964;7.628;2023-04-08T09:44:10;11.50;99.90
2999;DHT22;1509;51.964;7.628;2023-04-08T09:49:36;10.50;99.90
2999;DHT22;1509;51.964;7.628;2023-04-08T09:52:26;10.60;99.90
2999;DHT22;1509;51.964;7.628;2023-04-08T09:55:04;10.90;99.90
2999;DHT22;1509;51.964;7.628;2023-04-08T09:57:51;10.90;99.90
2999;DHT22;1509;51.964;7.628;2023-04-08T10:00:34;10.70;99.90
2999;DHT22;1509;51.964;7.628;2023-04-08T10:03:18;10.50;99.90
2999;DHT22;1509;51.964;7.628;2023-04-08T10:05:48;10.40;99.90
2999;DHT22;1509;51.964;7.628;2023-04-08T10:08:15;10.50;99.90
2999;DHT22;1509;51.964;7.628;2023-04-08T10:13:08;10.70;99.90
2999;DHT22;1509;51.964;7.628;2023-04-08T10:15:35;10.80;99.90
2999;DHT22;1509;51.964;7.628;2023-04-08T10:22:59;10.50;99.90
2999;DHT22;1509;51.964;7.628;2023-04-08T10:25:36;10.50;99.90
2999;DHT22;1509;51.964;7.628;2023-04-08T10:30:43;10.80;99.90
2999;DHT22;1509;51.964;7.628;2023-04-08T10:36:08;11.10;99.90
2999;DHT22;1509;51.964;7.628;2023-04-08T10:38:34;11.20;99.90
2999;DHT22;1509;51.964;7.628;2023-04-08T10:41:00;11.10;99.90
2999;DHT22;1509;51.964;7.628;2023-04-08T10:43:31;11.20;99.90
2999;DHT22;1509;51.964;7.628;2023-04-08T10:45:57;11.10;99.90
2999;DHT22;1509;51.964;7.628;2023-04-08T10:48:24;11.30;99.90
2999;DHT22;1509;51.964;7.628;2023-04-08T10:50:53;11.30;99.90
2999;DHT22;1509;51.964;7.628;2023-04-08T10:55:51;11.50;99.90
2999;DHT22;1509;51.964;7.628;2023-04-08T10:58:17;11.90;99.90
2999;DHT22;1509;51.964;7.628;2023-04-08T11:00:43;12.10;99.90
2999;DHT22;1509;51.964;7.628;2023-04-08T11:03:09;12.20;99.90
2999;DHT22;1509;51.964;7.628;2023-04-08T11:05:36;12.30;99.90
2999;DHT22;1509;51.964;7.628;2023-04-08T11:08:04;12.30;99.90
2999;DHT22;1509;51.964;7.628;2023-04-08T11:10:30;12.40;99.90
2999;DHT22;1509;51.964;7.628;2023-04-08T11:13:01;12.40;99.90
2999;DHT22;1509;51.964;7.628;2023-04-08T11:15:29;12.40;99.90
2999;DHT22;1509;51.964;7.628;2023-04-08T11:17:55;12.50;99.90
2999;DHT22;1509;51.964;7.628;2023-04-08T11:20:21;12.30;99.90
2999;DHT22;1509;51.964;7.628;2023-04-08T11:22:47;12.30;99.90
2999;DHT22;1509;51.964;7.628;2023-04-08T11:25:13;12.00;99.90
2999;DHT22;1509;51.964;7.628;2023-04-08T11:27:39;12.10;99.90
2999;DHT22;1509;51.964;7.628;2023-04-08T11:30:06;12.00;99.90
2999;DHT22;1509;51.964;7.628;2023-04-08T11:32:34;11.90;99.90
2999;DHT22;1509;51.964;7.628;2023-04-08T11:35:00;12.00;99.90
2999;DHT22;1509;51.964;7.628;2023-04-08T11:37:39;12.30;99.90
2999;DHT22;1509;51.964;7.628;2023-04-08T11:40:07;12.60;99.90
2999;DHT22;1509;51.964;7.628;2023-04-08T11:42:33;12.60;99.90
2999;DHT22;1509;51.964;7.628;2023-04-08T11:44:59;12.70;99.90
2999;DHT22;1509;51.964;7.628;2023-04-08T11:47:34;12.70;99.90
2999;DHT22;1509;51.964;7.628;2023-04-08T11:49:59;12.70;99.90
2999;DHT22;1509;51.964;7.628;2023-04-08T11:52:45;12.90;99.90
2999;DHT22;1509;51.964;7.628;2023-04-08T11:55:28;12.90;99.90
2999;DHT22;1509;51.964;7.628;2023-04-08T11:57:55;12.90;99.90
2999;DHT22;1509;51.964;7.628;2023-04-08T12:00:22;13.10;99.90
2999;DHT22;1509;51.964;7.628;2023-04-08T12:02:48;13.20;99.90
2999;DHT22;1509;51.964;7.628;2023-04-08T12:05:16;13.10;99.90
2999;DHT22;1509;51.964;7.628;2023-04-08T12:07:42;12.80;99.90
2999;DHT22;1509;51.964;7.628;2023-04-08T12:10:11;12.90;99.90
2999;DHT22;1509;51.964;7.628;2023-04-08T12:12:38;12.90;99.90
2999;DHT22;1509;51.964;7.628;2023-04-08T12:15:04;13.20;99.90
2999;DHT22;1509;51.964;7.628;2023-04-08T12:17:30;13.50;99.90
2999;DHT22;1509;51.964;7.628;2023-04-08T12:19:56;13.60;99.90
2999;DHT22;1509;51.964;7.628;2023-04-08T12:22:22;13.30;99.90
2999;DHT22;1509;51.964;7.628;2023-04-08T12:24:48;13.00;99.90
2999;DHT22;1509;51.964;7.628;2023-04-08T12:27:13;13.10;99.90
2999;DHT22;1509;51.964;7.628;2023-04-08T12:29:39;13.00;99.90
2999;DHT22;1509;51.964;7.628;2023-04-08T12:32:05;12.80;99.90
2999;DHT22;1509;51.964;7.628;2023-04-08T12:34:31;12.80;99.90
2999;DHT22;1509;51.964;7.628;2023-04-08T12:36:57;12.70;99.90
2999;DHT22;1509;51.964;7.628;2023-04-08T12:39:23;12.90;99.90
2999;DHT22;1509;51.964;7.628;2023-04-08T12:41:49;12.70;99.90
2999;DHT22;1509;51.964;7.628;2023-04-08T12:44:15;12.80;99.90
2999;DHT22;1509;51.964;7.628;2023-04-08T12:46:41;13.00;99.90
2999;DHT22;1509;51.964;7.628;2023-04-08T12:49:06;13.20;99.90
2999;DHT22;1509;51.964;7.628;2023-04-08T12:51:33;13.50;99.90
2999;DHT22;1509;51.964;7.628;2023-04-08T12:54:02;13.50;99.90
2999;DHT22;1509;51.964;7.628;2023-04-08T12:56:29;13.20;99.90
2999;DHT22;1509;51.964;7.628;2023-04-08T12:58:55;13.10;99.90
2999;DHT22;1509;51.964;7.628;2023-04-08T13:01:22;12.90;99.90
2999;DHT22;1509;51.964;7.628;2023-04-08T13:03:47;13.00;99.90
2999;DHT22;1509;51.964;7.628;2023-04-08T13:06:13;12.90;99.90
2999;DHT22;1509;51.964;7.628;2023-04-08T13:08:40;12.70;99.90
2999;DHT22;1509;51.964;7.628;2023-04-08T13:11:07;12.80;99.90
2999;DHT22;1509;51.964;7.628;2023-04-08T13:13:33;12.70;99.90
2999;DHT22;1509;51.964;7.628;2023-04-08T13:15:58;12.70;99.90
2999;DHT22;1509;51.964;7.628;2023-04-08T13:18:24;12.70;99.90
2999;DHT22;1509;51.964;7.628;2023-04-08T13:20:50;12.80;99.90
2999;DHT22;1509;51.964;7.628;2023-04-08T13:23:15;13.00;99.90
2999;DHT22;1509;51.964;7.628;2023-04-08T13:25:42;13.00;99.90
2999;DHT22;1509;51.964;7.628;2023-04-08T13:28:09;12.90;99.90
2999;DHT22;1509;51.964;7.628;2023-04-08T13:30:35;12.70;99.90
2999;DHT22;1509;51.964;7.628;2023-04-08T13:33:01;12.50;99.90
2999;DHT22;1509;51.964;7.628;2023-04-08T13:35:26;12.40;99.90
2999;DHT22;1509;51.964;7.628;2023-04-08T13:37:52;12.50;99.90
2999;DHT22;1509;51.964;7.628;2023-04-08T13:40:21;12.40;99.90
2999;DHT22;1509;51.964;7.628;2023-04-08T13:42:46;12.40;99.90
2999;DHT22;1509;51.964;7.628;2023-04-08T13:45:13;12.40;99.90
2999;DHT22;1509;51.964;7.628;2023-04-08T13:50:06;12.40;99.90
2999;DHT22;1509;51.964;7.628;2023-04-08T13:52:32;12.50;99.90
2999;DHT22;1509;51.964;7.628;2023-04-08T13:54:58;12.40;99.90
2999;DHT22;1509;51.964;7.628;2023-04-08T13:57:23;12.60;99.90
2999;DHT22;1509;51.964;7.628;2023-04-08T13:59:49;12.60;99.90
2999;DHT22;1509;51.964;7.628;2023-04-08T14:02:18;12.40;99.90
2999;DHT22;1509;51.964;7.628;2023-04-08T14:04:43;12.40;99.90
2999;DHT22;1509;51.964;7.628;2023-04-08T14:07:11;12.30;99.90
2999;DHT22;1509;51.964;7.628;2023-04-08T14:09:36;12.10;99.90
2999;DHT22;1509;51.964;7.628;2023-04-08T14:12:02;12.10;99.90
2999;DHT22;1509;51.964;7.628;2023-04-08T14:14:28;12.20;99.90
2999;DHT22;1509;51.964;7.628;2023-04-08T14:16:54;12.20;99.90
2999;DHT22;1509;51.964;7.628;2023-04-08T14:19:19;12.20;99.90
2999;DHT22;1509;51.964;7.628;2023-04-08T14:21:45;12.30;99.90
2999;DHT22;1509;51.964;7.628;2023-04-08T14:24:11;12.30;99.90
2999;DHT22;1509;51.964;7.628;2023-04-08T14:26:36;12.30;99.90
2999;DHT22;1509;51.964;7.628;2023-04-08T14:29:04;12.30;99.90
2999;DHT22;1509;51.964;7.628;2023-04-08T14:31:30;12.30;99.90
2999;DHT22;1509;51.964;7.628;2023-04-08T14:33:57;12.40;99.90
2999;DHT22;1509;51.964;7.628;2023-04-08T14:36:22;12.40;99.90
2999;DHT22;1509;51.964;7.628;2023-04-08T14:38:51;12.20;99.90
2999;DHT22;1509;51.964;7.628;2023-04-08T14:41:16;12.20;99.90
2999;DHT22;1509;51.964;7.628;2023-04-08T14:43:42;12.20;99.90
2999;DHT22;1509;51.964;7.628;2023-04-08T14:46:08;12.50;99.90
2999;DHT22;1509;51.964;7.628;2023-04-08T14:48:33;12.50;99.90
2999;DHT22;1509;51.964;7.628;2023-04-08T14:50:59;12.50;99.90
2999;DHT22;1509;51.964;7.628;2023-04-08T14:53:25;12.50;99.90
2999;DHT22;1509;51.964;7.628;2023-04-08T14:55:51;12.50;99.90
2999;DHT22;1509;51.964;7.628;2023-04-08T14:58:17;12.50;99.90
2999;DHT22;1509;51.964;7.628;2023-04-08T15:00:45;12.40;99.90
2999;DHT22;1509;51.964;7.628;2023-04-08T15:03:12;12.40;99.90
2999;DHT22;1509;51.964;7.628;2023-04-08T15:05:38;12.40;99.90
2999;DHT22;1509;51.964;7.628;2023-04-08T15:08:10;12.60;99.90
2999;DHT22;1509;51.964;7.628;2023-04-08T15:10:35;12.50;99.90
2999;DHT22;1509;51.964;7.628;2023-04-08T15:13:01;12.40;99.90
2999;DHT22;1509;51.964;7.628;2023-04-08T15:15:27;12.30;99.90
2999;DHT22;1509;51.964;7.628;2023-04-08T15:17:53;12.30;99.90
2999;DHT22;1509;51.964;7.628;2023-04-08T15:20:18;12.30;99.90
2999;DHT22;1509;51.964;7.628;2023-04-08T15:22:45;12.20;99.90
2999;DHT22;1509;51.964;7.628;2023-04-08T15:25:11;12.30;99.90
2999;DHT22;1509;51.964;7.628;2023-04-08T15:27:37;12.50;99.90
2999;DHT22;1509;51.964;7.628;2023-04-08T15:30:06;12.50;99.90
2999;DHT22;1509;51.964;7.628;2023-04-08T15:32:32;12.50;99.90
2999;DHT22;1509;51.964;7.628;2023-04-08T15:34:59;12.40;99.90
2999;DHT22;1509;51.964;7.628;2023-04-08T15:37:25;12.20;99.90
2999;DHT22;1509;51.964;7.628;2023-04-08T15:39:51;12.20;99.90
2999;DHT22;1509;51.964;7.628;2023-04-08T15:42:25;12.20;99.90
2999;DHT22;1509;51.964;7.628;2023-04-08T15:44:51;12.20;99.90
2999;DHT22;1509;51.964;7.628;2023-04-08T15:47:17;12.10;99.90
2999;DHT22;1509;51.964;7.628;2023-04-08T15:49:43;12.10;99.90
2999;DHT22;1509;51.964;7.628;2023-04-08T15:52:09;12.00;99.90
2999;DHT22;1509;51.964;7.628;2023-04-08T15:54:34;12.20;99.90
2999;DHT22;1509;51.964;7.628;2023-04-08T15:57:03;12.20;99.90
2999;DHT22;1509;51.964;7.628;2023-04-08T15:59:29;12.40;99.90
2999;DHT22;1509;51.964;7.628;2023-04-08T16:01:55;12.40;99.90
2999;DHT22;1509;51.964;7.628;2023-04-08T16:04:20;12.30;99.90
2999;DHT22;1509;51.964;7.628;2023-04-08T16:06:47;12.30;99.90
2999;DHT22;1509;51.964;7.628;2023-04-08T16:09:12;12.30;99.90
2999;DHT22;1509;51.964;7.628;2023-04-08T16:11:38;12.40;99.90
2999;DHT22;1509;51.964;7.628;2023-04-08T16:14:04;12.50;99.90
2999;DHT22;1509;51.964;7.628;2023-04-08T16:16:30;12.40;99.90
2999;DHT22;1509;51.964;7.628;2023-04-08T16:18:56;12.40;99.90
2999;DHT22;1509;51.964;7.628;2023-04-08T16:21:21;12.20;99.90
2999;DHT22;1509;51.964;7.628;2023-04-08T16:23:47;12.20;99.90
2999;DHT22;1509;51.964;7.628;2023-04-08T16:26:13;12.10;99.90
2999;DHT22;1509;51.964;7.628;2023-04-08T16:28:39;12.10;99.90
2999;DHT22;1509;51.964;7.628;2023-04-08T16:31:05;12.00;99.90
2999;DHT22;1509;51.964;7.628;2023-04-08T16:33:31;12.00;99.90
2999;DHT22;1509;51.964;7.628;2023-04-08T16:35:57;12.10;99.90